aviador You're here:

KLPC Decoded Metar

LOMPOC in CA, USA
Report Time2018-04-23 22:56:00
UTC Time2018-04-23 23:11:54
Flight Rules vfr VFR
Wind270° at 13 kt
W.Decomp.*RWY 25: 13.0 kt HW 1.1 kt RCW
W.Rank270° ranks 1
Current wind is above 270° avg. (9.0)
Visibility9999 m
Phenomena:N/A
Clouds:N/A
Expected CloudBase > 2,000 ft AGL from Temp-Dew spread
CeilingNone
Temp16°C (ISA +1)
Dew Point11°C (72% RH)
AAT11.6°C
QNH1016 hPa
Density Alt302 ft
Elevation89 ft
Report Wrong Elevation
Raw Report
KLPC 232256Z AUTO 27013KT 9SM 16/11 A3000 RMK AO2 SLP164 T01610106
$=

Extra information for KLPC:More info

Metar Taf Metar & Taf Last 4 Metars F.Rules Stats Wind Profile Meteogram Temp Stats Airport Information Weather charts Add Link Nearby VenuesMetar ALERT Operation Metar Decoded Social comments

AIRNAV info for KLPC